createdAt,value
2018-09-25T00:00:28.691Z,63.10
2018-09-25T00:01:28.443Z,60.00
2018-09-25T00:02:28.475Z,62.10
2018-09-25T00:03:28.552Z,60.10
2018-09-25T00:04:28.589Z,62.40
2018-09-25T00:05:28.845Z,61.90
2018-09-25T00:06:28.662Z,60.70
2018-09-25T00:07:28.719Z,58.50
2018-09-25T00:08:28.762Z,64.80
2018-09-25T00:09:28.857Z,60.20
2018-09-25T00:10:29.056Z,59.40
2018-09-25T00:11:29.074Z,60.70
2018-09-25T00:12:28.963Z,59.90
2018-09-25T00:13:28.995Z,59.80
2018-09-25T00:14:29.065Z,61.90
2018-09-25T00:15:29.119Z,61.30
2018-09-25T00:16:29.177Z,65.20
2018-09-25T00:17:29.391Z,64.30
2018-09-25T00:18:29.288Z,63.20
2018-09-25T00:19:29.258Z,66.00
2018-09-25T00:20:29.315Z,64.60
2018-09-25T00:21:29.412Z,66.50
2018-09-25T00:22:29.691Z,64.90
2018-09-25T00:23:29.522Z,62.60
2018-09-25T00:24:29.502Z,63.60
2018-09-25T00:25:29.588Z,62.40
2018-09-25T00:26:29.609Z,63.80
2018-09-25T00:27:29.581Z,62.20
2018-09-25T00:28:29.882Z,65.30
2018-09-25T00:29:29.695Z,63.70
2018-09-25T00:30:29.733Z,63.60
2018-09-25T00:31:29.753Z,62.70
2018-09-25T00:32:29.835Z,61.50
2018-09-25T00:33:29.857Z,59.00
2018-09-25T00:34:30.098Z,59.40
2018-09-25T00:35:29.950Z,58.20
2018-09-25T00:36:30.032Z,56.90
2018-09-25T00:37:30.094Z,59.60
2018-09-25T00:38:30.118Z,57.10
2018-09-25T00:39:30.314Z,56.50
2018-09-25T00:40:30.227Z,60.90
2018-09-25T00:41:30.246Z,59.00
2018-09-25T00:42:30.281Z,58.00
2018-09-25T00:43:30.344Z,57.30
2018-09-25T00:44:30.346Z,57.70
2018-09-25T00:45:30.549Z,56.20
2018-09-25T00:46:30.438Z,55.50
2018-09-25T00:47:30.493Z,55.90
2018-09-25T00:48:30.542Z,55.90
2018-09-25T00:49:30.628Z,55.60
2018-09-25T00:50:30.657Z,56.30
2018-09-25T00:51:30.673Z,54.10
2018-09-25T00:52:30.725Z,54.70
2018-09-25T00:53:30.739Z,55.20
2018-09-25T00:54:30.812Z,53.60
2018-09-25T00:55:30.834Z,53.70
2018-09-25T00:56:30.876Z,54.20
2018-09-25T00:57:30.953Z,54.40
2018-09-25T00:58:30.968Z,53.00
2018-09-25T00:59:30.989Z,55.30
2018-09-25T01:00:31.070Z,54.30
2018-09-25T01:01:31.138Z,52.70
2018-09-25T01:02:31.169Z,53.00
2018-09-25T01:03:31.209Z,53.30
2018-09-25T01:04:31.235Z,55.10
2018-09-25T01:05:31.265Z,52.50
2018-09-25T01:06:31.364Z,51.00
2018-09-25T01:07:31.382Z,50.30
2018-09-25T01:08:31.431Z,50.60
2018-09-25T01:09:31.461Z,49.90
2018-09-25T01:10:31.481Z,49.70
2018-09-25T01:11:31.593Z,52.70
2018-09-25T01:12:31.591Z,52.30
2018-09-25T01:13:31.657Z,50.90
2018-09-25T01:14:31.697Z,47.30
2018-09-25T01:15:31.728Z,48.50
2018-09-25T01:16:31.964Z,49.50
2018-09-25T01:17:31.820Z,47.70
2018-09-25T01:18:31.842Z,47.80
2018-09-25T01:19:31.886Z,49.20
2018-09-25T01:20:31.955Z,46.70
2018-09-25T01:21:32.140Z,48.10
2018-09-25T01:22:32.058Z,49.00
2018-09-25T01:23:32.089Z,49.60
2018-09-25T01:24:32.151Z,49.60
2018-09-25T01:25:32.191Z,49.50
2018-09-25T01:26:32.383Z,48.50
2018-09-25T01:27:32.282Z,50.10
2018-09-25T01:28:32.374Z,48.30
2018-09-25T01:29:32.347Z,52.00
2018-09-25T01:30:32.430Z,52.00
2018-09-25T01:31:32.473Z,53.30
2018-09-25T01:32:32.770Z,50.50
2018-09-25T01:33:32.591Z,48.80
2018-09-25T01:34:32.646Z,51.50
2018-09-25T01:35:32.623Z,50.90
2018-09-25T01:36:32.690Z,49.40
2018-09-25T01:37:32.754Z,49.50
2018-09-25T01:38:33.053Z,50.20
2018-09-25T01:39:32.813Z,52.40
2018-09-25T01:40:32.836Z,52.10
2018-09-25T01:41:32.897Z,53.00
2018-09-25T01:42:32.918Z,52.80
2018-09-25T01:43:32.963Z,53.50
2018-09-25T01:44:33.277Z,53.70
2018-09-25T01:45:33.073Z,50.70
2018-09-25T01:46:33.117Z,51.90
2018-09-25T01:47:33.160Z,52.00
2018-09-25T01:48:33.194Z,51.20
2018-09-25T01:49:33.256Z,47.70
2018-09-25T01:50:33.385Z,49.50
2018-09-25T01:51:33.333Z,47.50
2018-09-25T01:52:33.349Z,48.40
2018-09-25T01:53:33.436Z,50.00
2018-09-25T01:54:33.494Z,48.20
2018-09-25T01:55:33.748Z,49.60
2018-09-25T01:56:33.533Z,49.70
2018-09-25T01:57:33.583Z,52.00
2018-09-25T01:58:33.628Z,50.90
2018-09-25T01:59:33.663Z,50.40
2018-09-25T02:00:33.800Z,49.90
2018-09-25T02:01:33.745Z,46.10
2018-09-25T02:02:33.808Z,47.50
2018-09-25T02:03:33.876Z,45.60
2018-09-25T02:04:33.913Z,47.10
2018-09-25T02:05:34.093Z,44.30
2018-09-25T02:06:34.042Z,46.00
2018-09-25T02:07:34.038Z,44.00
2018-09-25T02:08:34.082Z,44.80
2018-09-25T02:09:34.114Z,42.40
2018-09-25T02:10:34.137Z,44.90
2018-09-25T02:11:34.320Z,43.70
2018-09-25T02:12:34.297Z,44.40
2018-09-25T02:13:34.287Z,45.20
2018-09-25T02:14:34.330Z,43.50
2018-09-25T02:15:34.408Z,46.00
2018-09-25T02:16:34.497Z,42.30
2018-09-25T02:17:34.466Z,43.40
2018-09-25T02:18:34.489Z,39.70
2018-09-25T02:19:34.543Z,41.10
2018-09-25T02:20:34.615Z,41.80
2018-09-25T02:21:34.926Z,39.90
2018-09-25T02:22:34.689Z,40.70
2018-09-25T02:23:34.736Z,40.00
2018-09-25T02:24:34.762Z,40.00
2018-09-25T02:26:19.410Z,42.90
2018-09-25T02:27:19.453Z,43.30
2018-09-25T02:28:19.489Z,44.00
2018-09-25T02:29:19.541Z,41.90
2018-09-25T02:32:42.327Z,42.10
2018-09-25T02:33:42.360Z,42.90
2018-09-25T02:35:42.448Z,42.70
2018-09-25T02:37:35.126Z,42.60
2018-09-25T02:41:21.204Z,42.80
2018-09-25T02:42:21.236Z,42.70
2018-09-25T02:43:21.274Z,43.00
2018-09-25T02:44:21.336Z,42.20
2018-09-25T02:45:21.374Z,43.20
2018-09-25T02:46:21.427Z,43.10
2018-09-25T02:47:21.476Z,42.10
2018-09-25T02:48:21.765Z,42.90
2018-09-25T02:49:21.555Z,42.90
2018-09-25T02:50:21.644Z,44.10
2018-09-25T02:51:21.676Z,43.60
2018-09-25T02:52:21.698Z,45.30
2018-09-25T02:53:21.830Z,45.90
2018-09-25T02:54:21.778Z,45.30
2018-09-25T02:55:21.823Z,45.90
2018-09-25T02:56:21.885Z,46.70
2018-09-25T02:57:21.905Z,46.40
2018-09-25T02:58:21.969Z,47.00
2018-09-25T02:59:22.143Z,46.90
2018-09-25T03:00:22.041Z,45.10
2018-09-25T03:01:22.096Z,45.40
2018-09-25T03:02:22.130Z,46.40
2018-09-25T03:03:22.169Z,45.70
2018-09-25T03:04:22.514Z,46.20
2018-09-25T03:05:22.326Z,45.10
2018-09-25T03:06:22.328Z,44.10
2018-09-25T03:07:22.369Z,45.70
2018-09-25T03:08:22.390Z,43.40
2018-09-25T03:09:22.572Z,44.30
2018-09-25T03:10:22.485Z,42.40
2018-09-25T03:11:22.522Z,44.20
2018-09-25T03:12:22.600Z,42.30
2018-09-25T03:13:22.661Z,41.40
2018-09-25T03:14:22.907Z,42.00
2018-09-25T03:15:22.722Z,42.50
2018-09-25T03:16:22.763Z,40.70
2018-09-25T03:17:22.789Z,39.70
2018-09-25T03:18:22.841Z,40.30
2018-09-25T03:19:23.015Z,41.40
2018-09-25T03:20:22.944Z,39.20
2018-09-25T03:21:22.946Z,40.30
2018-09-25T03:22:23.076Z,40.80
2018-09-25T03:23:23.047Z,39.60
2018-09-25T03:24:23.407Z,38.90
2018-09-25T03:25:23.154Z,39.90
2018-09-25T03:26:23.200Z,40.30
2018-09-25T03:27:23.233Z,41.10
2018-09-25T03:28:23.289Z,40.70
2018-09-25T03:29:23.329Z,40.00
2018-09-25T03:30:23.466Z,41.00
2018-09-25T03:31:23.423Z,41.50
2018-09-25T03:32:23.470Z,42.50
2018-09-25T03:33:23.501Z,42.40
2018-09-25T03:34:23.539Z,42.00
2018-09-25T03:35:23.868Z,41.90
2018-09-25T03:36:23.622Z,42.20
2018-09-25T03:37:23.716Z,42.40
2018-09-25T03:38:23.726Z,42.90
2018-09-25T03:39:23.809Z,42.70
2018-09-25T03:40:23.895Z,43.40
2018-09-25T03:41:23.843Z,43.00
2018-09-25T03:42:23.894Z,41.60
2018-09-25T03:43:24.002Z,41.20
2018-09-25T03:44:24.001Z,42.00
2018-09-25T03:45:24.035Z,41.80
2018-09-25T03:46:24.173Z,42.60
2018-09-25T03:47:24.131Z,42.40
2018-09-25T03:48:24.173Z,42.10
2018-09-25T03:49:24.210Z,41.90
2018-09-25T03:50:24.240Z,41.90
2018-09-25T03:51:24.292Z,42.70
2018-09-25T03:52:24.341Z,41.70
2018-09-25T03:53:24.388Z,41.90
2018-09-25T03:54:24.420Z,43.90
2018-09-25T03:55:24.454Z,42.90
2018-09-25T03:56:24.600Z,42.60
2018-09-25T03:57:24.604Z,42.60
2018-09-25T03:58:24.587Z,42.30
2018-09-25T03:59:24.654Z,43.00
2018-09-25T04:00:24.686Z,41.70
2018-09-25T04:01:24.988Z,40.30
2018-09-25T04:02:24.794Z,41.00
2018-09-25T04:03:24.833Z,40.30
2018-09-25T04:04:24.840Z,39.00
2018-09-25T04:05:24.894Z,39.60
2018-09-25T04:06:25.040Z,39.50
2018-09-25T04:07:24.990Z,39.80
2018-09-25T04:08:25.075Z,39.80
2018-09-25T04:09:25.088Z,40.40
2018-09-25T04:10:25.152Z,39.40
2018-09-25T04:11:25.330Z,39.80
2018-09-25T04:12:25.227Z,39.40
2018-09-25T04:13:25.254Z,38.20
2018-09-25T04:14:25.305Z,38.80
2018-09-25T04:15:25.333Z,38.10
2018-09-25T04:16:25.543Z,38.30
2018-09-25T04:17:25.434Z,38.50
2018-09-25T04:18:25.474Z,38.20
2018-09-25T04:19:25.532Z,38.40
2018-09-25T04:20:25.597Z,38.70
2018-09-25T04:21:25.929Z,39.50
2018-09-25T04:22:25.697Z,38.50
2018-09-25T04:23:25.744Z,38.60
2018-09-25T04:24:25.773Z,38.60
2018-09-25T04:25:25.838Z,39.10
2018-09-25T04:26:25.823Z,39.40
2018-09-25T04:27:25.899Z,41.20
2018-09-25T04:28:26.053Z,40.40
2018-09-25T04:29:25.992Z,41.10
2018-09-25T04:30:26.027Z,38.90
2018-09-25T04:31:26.101Z,40.00
2018-09-25T04:32:26.114Z,40.90
2018-09-25T04:33:26.444Z,40.20
2018-09-25T04:34:26.212Z,39.10
2018-09-25T04:35:26.263Z,39.70
2018-09-25T04:36:26.304Z,38.80
2018-09-25T04:37:26.362Z,37.50
2018-09-25T04:38:26.354Z,38.40
2018-09-25T04:39:26.525Z,38.80
2018-09-25T04:40:26.464Z,39.50
2018-09-25T04:41:26.497Z,37.40
2018-09-25T04:42:26.544Z,38.40
2018-09-25T04:43:26.644Z,37.20
2018-09-25T04:44:26.634Z,37.50
2018-09-25T04:45:26.791Z,37.90
2018-09-25T04:46:26.723Z,37.80
2018-09-25T04:47:26.787Z,38.10
2018-09-25T04:49:26.870Z,37.70
2018-09-25T04:50:26.917Z,37.50
2018-09-25T04:51:27.188Z,36.80
2018-09-25T04:52:26.988Z,39.70
2018-09-25T04:53:27.044Z,40.30
2018-09-25T04:54:27.091Z,41.60
2018-09-25T04:55:27.140Z,40.30
2018-09-25T04:56:27.171Z,41.60
2018-09-25T04:57:27.467Z,43.10
2018-09-25T04:58:27.274Z,43.90
2018-09-25T04:59:27.295Z,44.30
2018-09-25T05:00:27.355Z,45.60
2018-09-25T05:01:27.425Z,44.50
2018-09-25T05:02:27.738Z,44.60
2018-09-25T05:03:27.485Z,45.80
2018-09-25T05:04:27.545Z,44.40
2018-09-25T05:05:27.569Z,45.40
2018-09-25T05:06:27.659Z,45.00
2018-09-25T05:07:27.677Z,45.00
2018-09-25T05:08:27.735Z,46.00
2018-09-25T05:09:27.743Z,47.40
2018-09-25T05:10:27.827Z,47.00
2018-09-25T05:11:27.859Z,48.60
2018-09-25T05:12:27.896Z,46.00
2018-09-25T05:13:28.190Z,45.30
2018-09-25T05:14:27.988Z,46.20
2018-09-25T05:15:28.023Z,45.50
2018-09-25T05:16:28.119Z,43.80
2018-09-25T05:17:28.118Z,42.70
2018-09-25T05:18:28.477Z,42.40
2018-09-25T05:19:28.189Z,43.50
2018-09-25T05:20:28.255Z,43.40
2018-09-25T05:21:28.314Z,42.00
2018-09-25T05:22:28.354Z,44.70
2018-09-25T05:23:28.462Z,41.50
2018-09-25T05:24:28.737Z,42.60
2018-09-25T05:25:28.469Z,41.30
2018-09-25T05:26:28.503Z,39.70
2018-09-25T05:27:28.595Z,39.30
2018-09-25T05:28:28.609Z,40.90
2018-09-25T05:29:28.667Z,40.60
2018-09-25T05:30:28.981Z,38.50
2018-09-25T05:31:28.732Z,39.20
2018-09-25T05:32:28.794Z,39.70
2018-09-25T05:33:28.841Z,39.70
2018-09-25T05:34:28.882Z,37.10
2018-09-25T05:35:28.920Z,36.90
2018-09-25T05:36:29.031Z,34.40
2018-09-25T05:37:29.005Z,36.60
2018-09-25T05:38:29.053Z,37.00
2018-09-25T05:39:29.148Z,35.30
2018-09-25T05:40:29.118Z,33.40
2018-09-25T05:41:29.196Z,35.00
2018-09-25T05:42:29.326Z,33.30
2018-09-25T05:43:29.267Z,34.30
2018-09-25T05:44:29.324Z,34.40
2018-09-25T05:45:29.372Z,29.30
2018-09-25T05:46:29.455Z,30.00
2018-09-25T05:47:29.796Z,29.90
2018-09-25T05:48:29.591Z,28.60
2018-09-25T05:49:29.527Z,28.70
2018-09-25T05:50:29.597Z,29.20
2018-09-25T05:51:29.637Z,30.20
2018-09-25T05:52:29.774Z,29.00
2018-09-25T05:53:29.708Z,29.50
2018-09-25T05:54:29.781Z,29.10
2018-09-25T05:55:29.812Z,29.70
2018-09-25T05:56:29.864Z,29.10
2018-09-25T05:57:30.208Z,27.90
2018-09-25T05:58:29.932Z,26.70
2018-09-25T05:59:30.004Z,26.50
2018-09-25T06:00:30.027Z,25.30
2018-09-25T06:01:30.061Z,25.20
2018-09-25T06:02:30.115Z,26.60
2018-09-25T06:03:30.254Z,25.90
2018-09-25T06:04:30.212Z,27.40
2018-09-25T06:05:30.254Z,26.90
2018-09-25T06:06:30.307Z,26.60
2018-09-25T06:07:30.339Z,26.50
2018-09-25T06:08:30.693Z,24.50
2018-09-25T06:09:30.464Z,23.40
2018-09-25T06:10:30.491Z,21.80
2018-09-25T06:11:30.531Z,22.50
2018-09-25T06:12:30.586Z,22.80
2018-09-25T06:13:30.721Z,22.40
2018-09-25T06:14:30.668Z,22.50
2018-09-25T06:15:30.739Z,22.20
2018-09-25T06:16:30.761Z,21.70
2018-09-25T06:17:30.827Z,22.20
2018-09-25T06:18:30.850Z,21.80
2018-09-25T06:19:31.183Z,23.00
2018-09-25T06:20:30.943Z,22.70
2018-09-25T06:21:30.990Z,22.10
2018-09-25T06:22:31.088Z,21.80
2018-09-25T06:23:31.070Z,21.00
2018-09-25T06:24:31.118Z,22.30
2018-09-25T06:25:31.213Z,22.70
2018-09-25T06:26:31.201Z,21.50
2018-09-25T06:27:31.255Z,23.10
2018-09-25T06:28:31.312Z,21.10
2018-09-25T06:29:31.337Z,21.10
2018-09-25T06:30:31.779Z,20.30
2018-09-25T06:31:31.429Z,19.30
2018-09-25T06:32:31.476Z,21.00
2018-09-25T06:33:31.524Z,20.00
2018-09-25T06:34:31.609Z,19.00
2018-09-25T06:35:31.629Z,18.90
2018-09-25T06:36:31.679Z,19.20
2018-09-25T06:37:31.762Z,19.00
2018-09-25T06:38:31.775Z,18.50
2018-09-25T06:39:31.778Z,19.00
2018-09-25T06:40:32.117Z,18.60
2018-09-25T06:41:31.919Z,18.50
2018-09-25T06:42:31.943Z,19.00
2018-09-25T06:43:31.950Z,18.60
2018-09-25T06:44:32.026Z,19.20
2018-09-25T06:45:32.079Z,19.00
2018-09-25T06:46:32.114Z,19.90
2018-09-25T06:47:32.167Z,19.70
2018-09-25T06:48:32.189Z,20.10
2018-09-25T06:49:32.241Z,20.80
2018-09-25T06:50:32.285Z,20.50
2018-09-25T06:51:32.327Z,20.60
2018-09-25T06:52:32.399Z,20.40
2018-09-25T06:53:32.465Z,20.60
2018-09-25T06:54:32.474Z,19.90
2018-09-25T06:55:32.506Z,19.80
2018-09-25T06:56:32.856Z,19.00
2018-09-25T06:57:32.601Z,19.10
2018-09-25T06:58:32.640Z,18.20
2018-09-25T06:59:32.700Z,19.80
2018-09-25T07:00:32.742Z,19.20
2018-09-25T07:01:32.773Z,18.90
2018-09-25T07:02:32.940Z,19.10
2018-09-25T07:03:32.897Z,19.10
2018-09-25T07:04:32.899Z,20.00
2018-09-25T07:05:32.972Z,19.60
2018-09-25T07:06:33.059Z,19.60
2018-09-25T07:07:33.293Z,19.50
2018-09-25T07:08:33.107Z,20.10
2018-09-25T07:09:33.165Z,19.10
2018-09-25T07:10:33.330Z,19.30
2018-09-25T07:11:33.267Z,19.70
2018-09-25T07:12:33.330Z,19.80
2018-09-25T07:13:33.761Z,19.80
2018-09-25T07:14:33.398Z,20.80
2018-09-25T07:15:33.478Z,20.20
2018-09-25T07:16:33.460Z,20.00
2018-09-25T07:17:33.531Z,21.10
2018-09-25T07:18:33.548Z,20.00
2018-09-25T07:19:33.858Z,19.90
2018-09-25T07:20:33.622Z,20.30
2018-09-25T07:21:33.682Z,20.00
2018-09-25T07:22:33.771Z,19.40
2018-09-25T07:23:33.789Z,19.60
2018-09-25T07:24:33.839Z,19.20
2018-09-25T07:25:34.154Z,20.30
2018-09-25T07:26:33.925Z,19.70
2018-09-25T07:27:33.953Z,19.90
2018-09-25T07:28:34.102Z,19.80
2018-09-25T07:29:34.051Z,19.90
2018-09-25T07:30:34.083Z,19.50
2018-09-25T07:31:34.232Z,19.40
2018-09-25T07:32:34.204Z,19.20
2018-09-25T07:33:34.218Z,19.30
2018-09-25T07:34:34.262Z,18.90
2018-09-25T07:35:34.304Z,19.20
2018-09-25T07:36:34.451Z,19.40
2018-09-25T07:37:34.401Z,18.90
2018-09-25T07:38:34.452Z,19.70
2018-09-25T07:39:34.539Z,19.10
2018-09-25T07:40:34.548Z,20.70
2018-09-25T07:41:34.594Z,20.00
2018-09-25T07:42:34.667Z,19.80
2018-09-25T07:43:34.691Z,27.20
2018-09-25T07:44:34.719Z,26.60
2018-09-25T07:45:34.777Z,30.20
2018-09-25T07:46:34.841Z,31.10
2018-09-25T07:47:35.084Z,31.70
2018-09-25T07:48:34.947Z,31.60
2018-09-25T07:49:34.958Z,32.00
2018-09-25T07:50:34.996Z,31.90
2018-09-25T07:51:35.038Z,33.70
2018-09-25T07:52:35.183Z,32.40
2018-09-25T07:53:35.131Z,32.60
2018-09-25T07:54:35.177Z,32.60
2018-09-25T07:55:35.314Z,32.40
2018-09-25T07:56:35.315Z,31.60
2018-09-25T07:57:35.597Z,33.60
2018-09-25T07:58:35.365Z,33.60
2018-09-25T07:59:35.394Z,33.60
2018-09-25T08:00:35.426Z,34.70
2018-09-25T08:01:35.496Z,30.50
2018-09-25T08:02:35.635Z,35.40
2018-09-25T08:03:35.600Z,34.80
2018-09-25T08:04:35.631Z,35.30
2018-09-25T08:05:35.658Z,35.70
2018-09-25T08:06:35.708Z,34.00
2018-09-25T08:07:35.758Z,34.60
2018-09-25T08:08:35.898Z,34.30
2018-09-25T08:09:35.831Z,32.20
2018-09-25T08:10:35.892Z,32.20
2018-09-25T08:11:35.942Z,33.20
2018-09-25T08:12:35.974Z,32.50
2018-09-25T08:13:36.309Z,30.10
2018-09-25T08:14:36.070Z,29.60
2018-09-25T08:15:36.170Z,30.50
2018-09-25T08:16:36.164Z,31.40
2018-09-25T08:17:36.202Z,32.50
2018-09-25T08:18:36.245Z,31.40
2018-09-25T08:19:36.272Z,32.00
2018-09-25T08:20:36.348Z,33.20
2018-09-25T08:21:36.381Z,32.50
2018-09-25T08:22:36.401Z,31.30
2018-09-25T08:23:36.507Z,32.80
2018-09-25T08:24:36.590Z,31.10
2018-09-25T08:25:36.538Z,29.40
2018-09-25T08:26:36.612Z,30.30
2018-09-25T08:27:36.673Z,30.20
2018-09-25T08:28:36.671Z,26.50
2018-09-25T08:29:37.360Z,28.50
2018-09-25T08:30:36.759Z,27.20
2018-09-25T08:31:36.808Z,26.80
2018-09-25T08:32:36.862Z,24.80
2018-09-25T08:33:36.945Z,26.00
2018-09-25T08:34:36.939Z,25.80
2018-09-25T08:35:36.999Z,26.10
2018-09-25T08:36:37.039Z,25.80
2018-09-25T08:37:37.077Z,25.80
2018-09-25T08:38:37.143Z,25.80
2018-09-25T08:39:37.378Z,25.60
2018-09-25T08:40:37.510Z,25.90
2018-09-25T08:41:37.264Z,24.60
2018-09-25T08:42:37.352Z,26.80
2018-09-25T08:43:37.358Z,25.80
2018-09-25T08:44:37.407Z,26.00
2018-09-25T08:45:37.475Z,24.00
2018-09-25T08:46:37.564Z,24.20
2018-09-25T08:47:37.521Z,22.80
2018-09-25T08:48:37.559Z,23.50
2018-09-25T08:49:37.656Z,23.70
2018-09-25T08:50:37.672Z,24.10
2018-09-25T08:51:37.695Z,22.60
2018-09-25T08:52:38.027Z,22.40
2018-09-25T08:53:37.837Z,23.10
2018-09-25T08:54:37.850Z,22.30
2018-09-25T08:55:37.874Z,21.00
2018-09-25T08:56:37.923Z,22.20
2018-09-25T08:57:38.077Z,22.80
2018-09-25T08:58:38.016Z,23.50
2018-09-25T08:59:38.049Z,21.70
2018-09-25T09:00:38.112Z,21.60
2018-09-25T09:01:38.127Z,22.30
2018-09-25T09:02:38.532Z,20.50
2018-09-25T09:03:38.204Z,22.30
2018-09-25T09:04:38.304Z,23.00
2018-09-25T09:05:38.326Z,21.20
2018-09-25T09:06:38.355Z,20.90
2018-09-25T09:07:38.424Z,21.40
2018-09-25T09:08:38.568Z,21.20
2018-09-25T09:09:38.504Z,21.00
2018-09-25T09:10:38.560Z,20.80
2018-09-25T09:11:38.597Z,21.00
2018-09-25T09:12:38.634Z,21.70
2018-09-25T09:13:39.009Z,20.70
2018-09-25T09:14:38.714Z,21.50
2018-09-25T09:15:38.767Z,21.70
2018-09-25T09:16:38.851Z,21.20
2018-09-25T09:17:38.852Z,21.20
2018-09-25T09:18:38.996Z,19.40
2018-09-25T09:19:38.978Z,20.40
2018-09-25T09:20:38.994Z,19.90
2018-09-25T09:21:39.018Z,19.60
2018-09-25T09:22:39.081Z,19.70
2018-09-25T09:23:39.116Z,20.50
2018-09-25T09:24:39.406Z,19.90
2018-09-25T09:25:39.224Z,19.40
2018-09-25T09:26:39.262Z,19.30
2018-09-25T09:27:39.285Z,18.50
2018-09-25T09:28:39.348Z,19.00
2018-09-25T09:29:39.491Z,19.90
2018-09-25T09:30:39.428Z,19.60
2018-09-25T09:31:39.466Z,19.30
2018-09-25T09:32:39.543Z,18.60
2018-09-25T09:33:39.590Z,19.30
2018-09-25T09:34:39.603Z,19.00
2018-09-25T09:35:39.638Z,18.40
2018-09-25T09:36:39.714Z,19.10
2018-09-25T09:37:39.743Z,18.70
2018-09-25T09:38:39.784Z,18.60
2018-09-25T09:39:39.833Z,18.40
2018-09-25T09:40:39.882Z,17.40
2018-09-25T09:41:40.172Z,16.70
2018-09-25T09:42:39.964Z,17.20
2018-09-25T09:43:40.018Z,17.60
2018-09-25T09:44:40.071Z,16.90
2018-09-25T09:45:40.085Z,17.20
2018-09-25T09:46:40.139Z,17.10
2018-09-25T09:47:40.177Z,17.00
2018-09-25T09:48:40.249Z,17.20
2018-09-25T09:49:40.300Z,16.70
2018-09-25T09:50:40.319Z,17.50
2018-09-25T09:51:40.364Z,16.70
2018-09-25T09:52:40.418Z,17.20
2018-09-25T09:53:40.464Z,17.40
2018-09-25T09:54:40.513Z,17.20
2018-09-25T09:55:40.539Z,17.60
2018-09-25T09:56:40.595Z,18.30
2018-09-25T09:57:40.613Z,17.20
2018-09-25T09:58:40.705Z,18.10
2018-09-25T09:59:40.719Z,17.80
2018-09-25T10:00:40.893Z,18.00
2018-09-25T10:01:40.810Z,18.10
2018-09-25T10:02:40.853Z,17.50
2018-09-25T10:03:40.892Z,18.10
2018-09-25T10:04:41.002Z,18.40
2018-09-25T10:05:41.008Z,18.10
2018-09-25T10:06:41.394Z,19.70
2018-09-25T10:07:41.071Z,19.20
2018-09-25T10:08:41.140Z,20.30
2018-09-25T10:09:41.199Z,20.00
2018-09-25T10:10:41.220Z,20.10
2018-09-25T10:11:41.409Z,20.60
2018-09-25T10:12:41.333Z,20.30
2018-09-25T10:13:41.351Z,19.70
2018-09-25T10:14:41.411Z,19.10
2018-09-25T10:15:41.464Z,20.30
2018-09-25T10:16:41.501Z,20.10
2018-09-25T10:17:41.851Z,19.10
2018-09-25T10:18:41.602Z,19.50
2018-09-25T10:19:41.647Z,17.60
2018-09-25T10:20:41.671Z,18.20
2018-09-25T10:21:41.730Z,17.60
2018-09-25T10:22:41.794Z,18.80
2018-09-25T10:23:41.945Z,17.60
2018-09-25T10:24:41.926Z,17.90
2018-09-25T10:25:41.944Z,17.40
2018-09-25T10:26:41.971Z,16.60
2018-09-25T10:27:42.046Z,16.10
2018-09-25T10:28:42.175Z,14.80
2018-09-25T10:29:42.125Z,14.50
2018-09-25T10:30:42.220Z,13.80
2018-09-25T10:31:42.218Z,13.90
2018-09-25T10:32:42.284Z,14.10
2018-09-25T10:33:42.417Z,13.30
2018-09-25T10:34:42.388Z,14.20
2018-09-25T10:35:42.433Z,13.90
2018-09-25T10:36:42.458Z,13.80
2018-09-25T10:37:42.531Z,14.00
2018-09-25T10:38:42.910Z,13.90
2018-09-25T10:39:42.657Z,13.10
2018-09-25T10:40:42.686Z,13.40
2018-09-25T10:41:42.711Z,12.80
2018-09-25T10:42:42.794Z,13.80
2018-09-25T10:43:42.911Z,12.90
2018-09-25T10:44:42.880Z,12.80
2018-09-25T10:45:42.946Z,13.00
2018-09-25T10:46:42.992Z,13.70
2018-09-25T10:47:43.039Z,13.70
2018-09-25T10:48:43.098Z,14.20
2018-09-25T10:49:43.268Z,14.30
2018-09-25T10:50:43.194Z,14.20
2018-09-25T10:51:43.249Z,13.10
2018-09-25T10:52:43.315Z,13.40
2018-09-25T10:53:43.333Z,13.50
2018-09-25T10:54:43.402Z,13.70
2018-09-25T10:55:43.652Z,14.80
2018-09-25T10:56:43.491Z,14.50
2018-09-25T10:57:43.601Z,14.60
2018-09-25T10:58:43.612Z,14.30
2018-09-25T10:59:43.648Z,15.20
2018-09-25T11:00:43.817Z,14.50
2018-09-25T11:01:43.778Z,14.30
2018-09-25T11:02:43.850Z,14.30
2018-09-25T11:03:43.869Z,14.50
2018-09-25T11:04:43.946Z,15.40
2018-09-25T11:05:43.993Z,14.60
2018-09-25T11:06:44.141Z,15.10
2018-09-25T11:07:44.099Z,15.20
2018-09-25T11:08:44.151Z,15.00
2018-09-25T11:09:44.192Z,15.10
2018-09-25T11:10:44.256Z,15.80
2018-09-25T11:11:44.345Z,15.90
2018-09-25T11:12:44.490Z,16.00
2018-09-25T11:13:44.409Z,16.10
2018-09-25T11:14:44.483Z,16.50
2018-09-25T11:15:44.540Z,16.60
2018-09-25T11:16:44.579Z,16.00
2018-09-25T11:17:44.719Z,15.20
2018-09-25T11:18:44.700Z,16.00
2018-09-25T11:19:44.744Z,15.80
2018-09-25T11:20:44.844Z,15.20
2018-09-25T11:21:44.870Z,16.10
2018-09-25T11:22:44.984Z,15.80
2018-09-25T11:23:44.953Z,15.50
2018-09-25T11:24:45.008Z,15.60
2018-09-25T11:25:45.064Z,15.90
2018-09-25T11:26:45.111Z,16.10
2018-09-25T11:27:45.179Z,16.30
2018-09-25T11:28:45.241Z,16.10
2018-09-25T11:29:45.305Z,15.60
2018-09-25T11:30:45.324Z,16.50
2018-09-25T11:31:45.368Z,16.10
2018-09-25T11:32:45.448Z,17.30
2018-09-25T11:33:45.593Z,16.40
2018-09-25T11:34:45.560Z,15.40
2018-09-25T11:35:45.620Z,15.90
2018-09-25T11:36:45.671Z,15.90
2018-09-25T11:37:45.696Z,15.80
2018-09-25T11:38:45.792Z,16.00
2018-09-25T11:39:45.813Z,17.50
2018-09-25T11:40:45.942Z,17.30
2018-09-25T11:41:45.919Z,15.80
2018-09-25T11:42:45.978Z,15.40
2018-09-25T11:43:46.052Z,15.70
2018-09-25T11:44:46.214Z,15.40
2018-09-25T11:45:46.199Z,16.00
2018-09-25T11:46:46.343Z,14.50
2018-09-25T11:47:46.285Z,14.80
2018-09-25T11:48:46.341Z,15.30
2018-09-25T11:49:46.424Z,15.50
2018-09-25T11:50:46.532Z,14.50
2018-09-25T11:51:46.494Z,15.60
2018-09-25T11:52:46.619Z,15.40
2018-09-25T11:53:46.606Z,15.90
2018-09-25T11:54:46.664Z,15.40
2018-09-25T11:55:46.725Z,15.40
2018-09-25T11:56:46.892Z,16.20
2018-09-25T11:57:46.849Z,16.20
2018-09-25T11:58:46.890Z,16.70
2018-09-25T11:59:46.971Z,16.00
2018-09-25T12:00:47.026Z,16.20
2018-09-25T12:01:47.069Z,16.80
2018-09-25T12:02:47.395Z,15.50
2018-09-25T12:03:47.190Z,15.00
2018-09-25T12:04:47.239Z,15.70
2018-09-25T12:05:47.326Z,15.70
2018-09-25T12:06:47.375Z,15.60
2018-09-25T12:07:47.526Z,15.50
2018-09-25T12:08:47.469Z,16.10
2018-09-25T12:09:47.529Z,16.60
2018-09-25T12:10:47.580Z,16.00
2018-09-25T12:11:47.650Z,15.80
2018-09-25T12:12:47.714Z,15.90
2018-09-25T12:13:47.896Z,15.90
2018-09-25T12:14:47.866Z,15.50
2018-09-25T12:15:47.880Z,15.40
2018-09-25T12:16:47.943Z,14.80
2018-09-25T12:17:48.037Z,15.10
2018-09-25T12:18:48.055Z,15.50
2018-09-25T12:19:48.196Z,14.40
2018-09-25T12:20:48.163Z,14.40
2018-09-25T12:21:48.238Z,14.90
2018-09-25T12:22:48.273Z,14.30
2018-09-25T12:23:48.346Z,15.10
2018-09-25T12:24:48.405Z,13.80
2018-09-25T12:25:48.570Z,13.80
2018-09-25T12:26:48.875Z,15.40
2018-09-25T12:27:48.586Z,14.40
2018-09-25T12:28:48.634Z,14.40
2018-09-25T12:29:48.703Z,14.40
2018-09-25T12:30:48.771Z,14.10
2018-09-25T12:31:48.921Z,14.40
2018-09-25T12:32:48.857Z,13.70
2018-09-25T12:33:49.028Z,14.10
2018-09-25T12:34:49.009Z,14.50
2018-09-25T12:35:49.057Z,15.10
2018-09-25T12:36:49.151Z,14.80
2018-09-25T12:37:49.407Z,16.50
2018-09-25T12:38:49.231Z,15.90
2018-09-25T12:39:49.291Z,15.10
2018-09-25T12:40:49.370Z,14.30
2018-09-25T12:41:49.444Z,15.20
2018-09-25T12:42:49.570Z,15.70
2018-09-25T12:43:49.505Z,15.50
2018-09-25T12:44:49.565Z,15.30
2018-09-25T12:45:49.632Z,15.30
2018-09-25T12:46:49.694Z,15.80
2018-09-25T12:47:49.739Z,14.20
2018-09-25T12:48:49.931Z,15.10
2018-09-25T12:49:49.861Z,14.40
2018-09-25T12:50:49.942Z,15.10
2018-09-25T12:51:49.978Z,15.10
2018-09-25T12:52:50.049Z,14.40
2018-09-25T12:53:50.113Z,14.30
2018-09-25T12:54:50.251Z,14.50
2018-09-25T12:55:50.235Z,14.60
2018-09-25T12:56:50.282Z,14.70
2018-09-25T12:57:50.330Z,14.30
2018-09-25T12:58:50.400Z,14.40
2018-09-25T12:59:50.474Z,14.70
2018-09-25T13:00:50.521Z,15.80
2018-09-25T13:01:50.593Z,15.30